Time;durP1;ratioP1;P1;durP2;ratioP2;P2;SDS_P1;SDS_P2;PMS_P1;PMS_P2;Temp;Humidity;BMP_temperature;BMP_pressure;BME280_temperature;BME280_humidity;BME280_pressure;Samples;Min_cycle;Max_cycle;Signal;HPM_P1;HPM_P2
2022/10/16 00:01:10;;;;;;;7.78;4.55;;;;;;;5.70;98.99;100787.70;1709661;82;21538;-64
2022/10/16 00:03:41;;;;;;;7.45;5.25;;;;;;;5.68;98.72;100793.81;1706686;82;21551;-65
2022/10/16 00:06:09;;;;;;;7.65;5.53;;;;;;;5.66;99.07;100791.20;1718385;82;21022;-64
2022/10/16 00:08:36;;;;;;;10.30;6.28;;;;;;;5.63;99.85;100790.79;1719857;82;21679;-65
2022/10/16 00:11:12;;;;;;;9.53;6.97;;;;;;;5.60;98.94;100789.48;1704333;82;21576;-64
2022/10/16 00:13:41;;;;;;;10.82;6.25;;;;;;;5.56;98.36;100789.52;1717870;82;21518;-63
2022/10/16 00:16:08;;;;;;;10.63;6.87;;;;;;;5.53;97.71;100793.43;1719107;81;21566;-63
2022/10/16 00:18:37;;;;;;;9.50;6.17;;;;;;;5.53;98.70;100786.91;1656525;85;21072;-64
2022/10/16 00:21:11;;;;;;;9.78;6.42;;;;;;;5.54;98.46;100789.93;1657831;84;21600;-63
2022/10/16 00:23:39;;;;;;;9.05;5.92;;;;;;;5.53;98.65;100785.16;1657635;85;21811;-63
2022/10/16 00:26:10;;;;;;;11.70;5.92;;;;;;;5.53;98.09;100789.08;1661988;85;21039;-64
2022/10/16 00:28:37;;;;;;;6.47;4.95;;;;;;;5.52;98.65;100791.27;1661184;84;21066;-63
2022/10/16 00:31:06;;;;;;;6.50;5.25;;;;;;;5.51;97.87;100796.04;1667480;84;21563;-63
2022/10/16 00:33:33;;;;;;;6.62;4.90;;;;;;;5.50;97.74;100792.13;1667621;84;21743;-63
2022/10/16 00:36:01;;;;;;;6.35;4.75;;;;;;;5.48;98.59;100794.73;1674185;84;21747;-64
2022/10/16 00:38:28;;;;;;;6.42;5.35;;;;;;;5.45;99.56;100798.23;1678106;83;21652;-64
2022/10/16 00:40:54;;;;;;;8.18;5.25;;;;;;;5.42;99.11;100799.53;1665700;84;21476;-63
2022/10/16 00:43:43;;;;;;;7.12;5.30;;;;;;;5.43;100.00;100798.68;1670060;84;21546;-64
2022/10/16 00:46:37;;;;;;;5.62;4.87;;;;;;;5.43;99.28;100805.64;1675472;84;21533;-65
2022/10/16 00:49:16;;;;;;;9.53;5.33;;;;;;;5.37;99.58;100804.34;1667022;84;21926;-63
2022/10/16 00:51:50;;;;;;;8.38;4.75;;;;;;;5.32;99.97;100810.88;1676520;84;21557;-64
2022/10/16 00:54:29;;;;;;;8.30;4.30;;;;;;;5.32;100.00;100810.02;1670506;84;21510;-64
2022/10/16 00:56:57;;;;;;;6.20;4.08;;;;;;;5.37;100.00;100807.84;1649773;84;21464;-65
2022/10/16 00:59:32;;;;;;;8.70;4.95;;;;;;;5.41;100.00;100806.95;1675009;84;21419;-64
2022/10/16 01:01:59;;;;;;;8.38;4.85;;;;;;;5.44;100.00;100804.75;1670982;84;21838;-65
2022/10/16 01:04:25;;;;;;;6.47;4.90;;;;;;;5.39;100.00;100812.61;1670987;84;21501;-65
2022/10/16 01:07:32;;;;;;;7.78;4.47;;;;;;;5.38;100.00;100815.22;1670145;84;21601;-65
2022/10/16 01:10:48;;;;;;;6.92;4.90;;;;;;;5.37;100.00;100814.77;1675846;84;21452;-64
2022/10/16 01:13:27;;;;;;;6.97;4.50;;;;;;;5.29;100.00;100812.63;1668428;84;21490;-64
2022/10/16 01:16:11;;;;;;;6.12;4.45;;;;;;;5.31;100.00;100822.17;1664585;84;21925;-65
2022/10/16 01:18:49;;;;;;;7.53;5.00;;;;;;;5.32;100.00;100816.55;1661914;85;21530;-64
2022/10/16 01:21:18;;;;;;;;;;;;;;;5.24;100.00;100816.56;1663954;85;21541;-65
2022/10/16 01:24:19;;;;;;;6.50;4.40;;;;;;;5.17;100.00;100814.39;1655717;84;20535;-65
2022/10/16 01:27:10;;;;;;;5.70;4.20;;;;;;;5.11;100.00;100817.02;1673434;84;21012;-63
2022/10/16 01:30:01;;;;;;;6.25;4.80;;;;;;;5.09;100.00;100818.77;1675835;84;21892;-63
2022/10/16 01:32:40;;;;;;;7.03;4.90;;;;;;;5.05;100.00;100826.16;1722405;82;21426;-64
2022/10/16 01:35:29;;;;;;;10.68;5.33;;;;;;;5.02;100.00;100828.76;1718708;82;21060;-63
2022/10/16 01:38:13;;;;;;;6.55;4.92;;;;;;;5.03;100.00;100830.52;1721125;80;21538;-64
2022/10/16 01:40:43;;;;;;;11.90;5.47;;;;;;;4.99;100.00;100840.06;1719602;82;21002;-64
2022/10/16 01:43:17;;;;;;;5.55;4.53;;;;;;;4.97;100.00;100839.20;1715809;82;21521;-63
2022/10/16 01:45:45;;;;;;;9.03;4.72;;;;;;;4.95;100.00;100830.94;1707532;80;21571;-64
2022/10/16 01:48:18;;;;;;;7.20;4.80;;;;;;;4.93;100.00;100837.44;1714981;82;21523;-64
2022/10/16 01:50:54;;;;;;;12.47;4.80;;;;;;;4.91;100.00;100837.88;1707157;82;21413;-64
2022/10/16 01:53:21;;;;;;;5.97;4.55;;;;;;;4.90;100.00;100840.48;1712026;82;21518;-66
2022/10/16 01:55:48;;;;;;;10.95;4.90;;;;;;;4.92;100.00;100842.23;1721852;82;21800;-64
2022/10/16 01:58:16;;;;;;;8.20;4.87;;;;;;;4.91;100.00;100837.88;1690799;82;21524;-64
2022/10/16 02:00:45;;;;;;;4.75;4.33;;;;;;;4.92;100.00;100844.84;1710950;82;21546;-64
2022/10/16 02:03:14;;;;;;;6.45;4.65;;;;;;;4.89;100.00;100838.32;1713200;82;21564;-64
2022/10/16 02:05:54;;;;;;;8.60;5.00;;;;;;;4.86;100.00;100843.55;1720543;82;21518;-64
2022/10/16 02:08:22;;;;;;;8.73;5.15;;;;;;;4.84;100.00;100843.95;1705320;82;21807;-65
2022/10/16 02:10:49;;;;;;;5.60;4.65;;;;;;;4.82;100.00;100842.69;1692449;82;21680;-65
2022/10/16 02:13:23;;;;;;;6.17;4.72;;;;;;;4.84;100.00;100843.95;1725127;82;21517;-64
2022/10/16 02:15:50;;;;;;;7.90;5.30;;;;;;;4.82;100.00;100850.50;1699135;82;21482;-64
2022/10/16 02:18:18;;;;;;;5.58;4.78;;;;;;;4.80;100.00;100847.44;1722526;82;21413;-65
2022/10/16 02:20:53;;;;;;;7.80;5.58;;;;;;;4.80;100.00;100847.03;1727411;82;21747;-64
2022/10/16 02:25:39;;;;;;;7.75;4.83;;;;;;;4.32;100.00;100848.70;1793070;78;23104;-65
2022/10/16 02:28:19;;;;;;;5.87;4.85;;;;;;;4.79;100.00;100853.09;1752926;80;21547;-65
2022/10/16 02:31:00;;;;;;;5.60;4.55;;;;;;;4.84;100.00;100850.47;1765978;80;21765;-64
2022/10/16 02:33:27;;;;;;;6.25;5.00;;;;;;;4.84;100.00;100850.06;1766420;80;22675;-64
2022/10/16 02:35:53;;;;;;;7.03;4.90;;;;;;;4.85;100.00;100856.13;1757411;80;20967;-63
2022/10/16 02:38:20;;;;;;;9.28;5.62;;;;;;;4.83;100.00;100857.43;1757583;80;21483;-64
2022/10/16 02:40:47;;;;;;;9.68;6.12;;;;;;;4.84;100.00;100860.48;1768727;80;20942;-63
2022/10/16 02:43:13;;;;;;;12.63;6.53;;;;;;;4.80;100.00;100866.98;1763745;80;21853;-64
2022/10/16 02:45:40;;;;;;;12.05;6.22;;;;;;;4.82;100.00;100865.24;1769192;80;21644;-63
2022/10/16 02:48:08;;;;;;;12.07;7.00;;;;;;;4.81;100.00;100862.22;1740201;80;21566;-64
2022/10/16 02:50:35;;;;;;;11.83;7.03;;;;;;;4.78;100.00;100859.60;1760220;80;21375;-64
2022/10/16 02:53:02;;;;;;;12.85;7.97;;;;;;;4.75;100.00;100868.73;1761696;80;21607;-64
2022/10/16 02:55:28;;;;;;;12.25;7.25;;;;;;;4.71;100.00;100869.17;1768670;80;22128;-65
2022/10/16 02:57:55;;;;;;;12.80;7.37;;;;;;;4.69;100.00;100882.63;1765354;80;21383;-65
2022/10/16 03:00:22;;;;;;;12.00;7.17;;;;;;;4.66;100.00;100878.27;1761021;80;21513;-64
2022/10/16 03:02:49;;;;;;;12.25;7.42;;;;;;;4.64;100.00;100880.45;1764795;80;21486;-63
2022/10/16 03:05:16;;;;;;;16.52;7.78;;;;;;;4.60;100.00;100876.97;1761495;80;21529;-64
2022/10/16 03:07:44;;;;;;;13.70;8.05;;;;;;;4.59;100.00;100880.42;1763691;80;21518;-65
2022/10/16 03:10:11;;;;;;;12.43;7.40;;;;;;;4.60;100.00;100890.44;1755591;80;21629;-64
2022/10/16 03:12:39;;;;;;;12.95;6.65;;;;;;;4.62;100.00;100885.65;1763329;80;21530;-64
2022/10/16 03:15:07;;;;;;;11.10;6.83;;;;;;;4.66;100.00;100888.69;1757890;80;21550;-64
2022/10/16 03:17:35;;;;;;;13.32;6.95;;;;;;;4.72;100.00;100889.57;1761042;80;21463;-65
2022/10/16 03:20:04;;;;;;;14.90;7.15;;;;;;;4.72;100.00;100889.57;1772317;80;21549;-64
2022/10/16 03:22:31;;;;;;;11.68;6.78;;;;;;;4.73;100.00;100892.59;1769480;80;21597;-64
2022/10/16 03:24:58;;;;;;;11.43;6.22;;;;;;;4.73;100.00;100895.20;1747121;80;21038;-63
2022/10/16 03:27:25;;;;;;;8.33;6.00;;;;;;;4.70;100.00;100896.08;1759630;80;21522;-63
2022/10/16 03:29:52;;;;;;;;;;;;;;;4.69;100.00;100898.27;1754008;80;20950;-65
2022/10/16 03:32:20;;;;;;;10.60;5.40;;;;;;;4.62;100.00;100891.30;1745194;80;21856;-65
2022/10/16 03:34:47;;;;;;;6.17;5.30;;;;;;;4.59;100.00;100901.27;1752396;80;21656;-64
2022/10/16 03:37:14;;;;;;;6.37;4.97;;;;;;;4.60;100.00;100900.85;1749009;80;21512;-65
2022/10/16 03:39:41;;;;;;;8.15;5.30;;;;;;;4.58;100.00;100898.23;1755431;79;21522;-64
2022/10/16 03:42:07;;;;;;;7.47;4.80;;;;;;;4.57;100.00;100900.84;1753949;80;21504;-63
2022/10/16 03:44:34;;;;;;;8.68;4.70;;;;;;;4.52;100.00;100896.04;1744570;80;21834;-63
2022/10/16 03:47:02;;;;;;;6.72;5.25;;;;;;;4.52;100.00;100897.34;1743991;80;21676;-63
2022/10/16 03:49:29;;;;;;;7.72;5.17;;;;;;;4.48;100.00;100896.05;1742075;80;21501;-64
2022/10/16 03:51:56;;;;;;;6.22;5.28;;;;;;;4.47;100.00;100900.81;1755569;80;21513;-64
2022/10/16 03:54:22;;;;;;;7.75;4.90;;;;;;;4.47;100.00;100902.55;1754524;80;21572;-63
2022/10/16 03:56:49;;;;;;;6.15;4.80;;;;;;;4.47;100.00;100897.34;1683476;84;21587;-63
2022/10/16 03:59:17;;;;;;;;;;;;;;;4.43;100.00;100899.08;1700435;82;21518;-64
2022/10/16 04:01:43;;;;;;;5.17;4.60;;;;;;;4.36;100.00;100895.15;1695812;84;20458;-66
2022/10/16 04:04:10;;;;;;;6.72;5.12;;;;;;;4.30;100.00;100899.91;1712345;82;21449;-64
2022/10/16 04:06:38;;;;;;;6.37;5.00;;;;;;;4.27;100.00;100903.35;1715921;82;21579;-66
2022/10/16 04:09:05;;;;;;;9.90;5.35;;;;;;;4.25;100.00;100906.39;1752182;80;21805;-65
2022/10/16 04:11:32;;;;;;;7.05;5.70;;;;;;;4.24;100.00;100904.66;1750122;80;21453;-64
2022/10/16 04:14:00;;;;;;;6.58;5.55;;;;;;;4.22;100.00;100910.70;1742340;80;21460;-66
2022/10/16 04:16:28;;;;;;;6.33;5.35;;;;;;;4.20;100.00;100909.43;1755361;80;21081;-64
2022/10/16 04:18:57;;;;;;;8.28;5.70;;;;;;;4.18;100.00;100908.97;1751838;80;21415;-65
2022/10/16 04:21:24;;;;;;;8.45;5.55;;;;;;;4.18;100.00;100907.26;1751698;80;21868;-65
2022/10/16 04:23:52;;;;;;;7.25;5.08;;;;;;;4.20;100.00;100910.73;1744865;80;21031;-65
2022/10/16 04:26:18;;;;;;;6.22;5.28;;;;;;;4.20;100.00;100909.84;1744232;80;21561;-66
2022/10/16 04:28:45;;;;;;;6.78;5.72;;;;;;;4.21;100.00;100909.84;1751669;80;21521;-66
2022/10/16 04:31:14;;;;;;;9.55;6.50;;;;;;;4.21;100.00;100915.50;1755467;80;21573;-66
2022/10/16 04:33:43;;;;;;;6.20;5.50;;;;;;;4.23;100.00;100921.13;1757565;80;21816;-66
2022/10/16 04:36:10;;;;;;;8.43;6.03;;;;;;;4.22;100.00;100923.31;1748966;80;21535;-65
2022/10/16 04:38:39;;;;;;;8.33;5.62;;;;;;;4.21;100.00;100917.66;1742033;80;21559;-65
2022/10/16 04:41:07;;;;;;;7.65;5.42;;;;;;;4.28;100.00;100926.38;1749621;80;21542;-64
2022/10/16 04:43:37;;;;;;;7.87;5.72;;;;;;;4.36;100.00;100928.56;1756407;80;21405;-64
2022/10/16 04:46:04;;;;;;;10.75;5.55;;;;;;;4.40;100.00;100929.44;1745582;80;21823;-64
2022/10/16 04:48:32;;;;;;;;;;;;;;;4.42;100.00;100936.38;1754857;80;21484;-65
2022/10/16 04:50:59;;;;;;;6.60;5.73;;;;;;;4.41;100.00;100942.48;1746398;80;20510;-63
2022/10/16 04:53:25;;;;;;;11.03;7.10;;;;;;;4.42;100.00;100939.43;1738915;80;21491;-64
2022/10/16 04:55:52;;;;;;;7.30;5.90;;;;;;;4.44;100.00;100942.47;1740691;80;21577;-64
2022/10/16 04:58:18;;;;;;;8.53;5.58;;;;;;;4.48;100.00;100952.46;1741024;80;21876;-63
2022/10/16 05:00:46;;;;;;;8.45;6.22;;;;;;;4.50;100.00;100955.94;1757231;80;20994;-64
2022/10/16 05:03:13;;;;;;;7.50;5.60;;;;;;;4.49;100.00;100962.03;1747197;80;21504;-65
2022/10/16 05:05:44;;;;;;;7.25;6.17;;;;;;;4.52;100.00;100962.46;1759066;80;21093;-66
2022/10/16 05:08:13;;;;;;;7.50;6.00;;;;;;;4.54;100.00;100962.03;1745483;80;21570;-67
2022/10/16 05:10:44;;;;;;;7.72;5.37;;;;;;;4.57;100.00;100968.56;1740929;80;21514;-63
2022/10/16 05:13:12;;;;;;;6.50;5.22;;;;;;;4.63;100.00;100969.88;1754525;80;21557;-66
2022/10/16 05:15:39;;;;;;;6.07;4.90;;;;;;;4.78;100.00;100971.65;1743473;80;21093;-65
2022/10/16 05:18:06;;;;;;;8.78;6.00;;;;;;;4.89;100.00;100977.75;1757268;80;21524;-65
2022/10/16 05:20:33;;;;;;;9.40;5.20;;;;;;;5.01;100.00;100981.70;1755559;80;21443;-64
2022/10/16 05:23:00;;;;;;;7.28;5.67;;;;;;;5.09;100.00;100983.45;1748260;80;21925;-65
2022/10/16 05:25:26;;;;;;;10.15;5.62;;;;;;;5.13;100.00;100984.74;1747580;80;21439;-64
2022/10/16 05:27:53;;;;;;;10.48;6.12;;;;;;;5.18;100.00;100985.63;1765797;79;21686;-66
2022/10/16 05:30:20;;;;;;;6.67;5.65;;;;;;;5.23;100.00;100991.69;1769551;78;21494;-66
2022/10/16 05:32:50;;;;;;;7.15;5.15;;;;;;;5.32;100.00;100993.89;1766487;80;21486;-64
2022/10/16 05:35:18;;;;;;;7.03;5.67;;;;;;;5.39;100.00;101004.77;1760297;80;21822;-65
2022/10/16 05:37:45;;;;;;;8.65;6.15;;;;;;;5.46;100.00;101010.39;1766088;80;21624;-66
2022/10/16 05:40:12;;;;;;;5.78;5.22;;;;;;;5.55;100.00;101005.17;1759978;80;21607;-63
2022/10/16 05:42:40;;;;;;;8.33;4.95;;;;;;;5.64;100.00;101012.14;1760088;80;22377;-66
2022/10/16 05:45:09;;;;;;;6.20;5.10;;;;;;;5.79;100.00;101010.81;1764628;80;21014;-66
2022/10/16 05:47:37;;;;;;;5.92;5.33;;;;;;;5.93;100.00;101018.61;1724210;80;21398;-66
2022/10/16 05:50:05;;;;;;;6.95;5.78;;;;;;;6.04;100.00;101019.94;1763154;80;22169;-66
2022/10/16 05:52:31;;;;;;;7.83;5.17;;;;;;;6.11;100.00;101024.72;1759783;80;21491;-65
2022/10/16 05:54:59;;;;;;;13.98;5.80;;;;;;;6.19;100.00;101021.64;1768715;80;21048;-66
2022/10/16 05:57:26;;;;;;;7.17;5.33;;;;;;;6.29;100.00;101025.98;1753080;79;21415;-66
2022/10/16 05:59:53;;;;;;;8.43;5.90;;;;;;;6.41;100.00;101025.06;1764790;80;21794;-67
2022/10/16 06:02:19;;;;;;;6.65;4.85;;;;;;;6.52;100.00;101035.04;1768934;80;21422;-68
2022/10/16 06:04:46;;;;;;;8.03;6.08;;;;;;;6.62;100.00;101028.88;1763399;80;21625;-68
2022/10/16 06:07:13;;;;;;;10.13;6.12;;;;;;;6.73;100.00;101037.99;1766061;80;21502;-67
2022/10/16 06:09:40;;;;;;;8.85;5.80;;;;;;;6.79;100.00;101033.17;1760019;80;21506;-65
2022/10/16 06:12:08;;;;;;;8.40;5.80;;;;;;;6.88;100.00;101034.88;1768316;80;21560;-66
2022/10/16 06:14:35;;;;;;;8.15;5.75;;;;;;;6.99;100.00;101036.55;1760085;80;21466;-65
2022/10/16 06:17:02;;;;;;;9.13;6.08;;;;;;;7.05;100.00;101034.34;1771243;80;21490;-65
2022/10/16 06:19:29;;;;;;;8.60;5.45;;;;;;;7.15;100.00;101039.06;1769840;80;21545;-65
2022/10/16 06:21:57;;;;;;;8.85;6.08;;;;;;;7.34;100.00;101045.04;1755261;80;21448;-66
2022/10/16 06:24:25;;;;;;;8.03;5.70;;;;;;;7.53;100.00;101040.53;1762921;80;21522;-66
2022/10/16 06:26:51;;;;;;;9.15;5.97;;;;;;;7.64;100.00;101043.93;1760698;80;21457;-66
2022/10/16 06:29:18;;;;;;;9.15;6.05;;;;;;;7.72;100.00;101042.55;1750956;80;21571;-66
2022/10/16 06:31:44;;;;;;;10.32;6.67;;;;;;;7.80;100.00;101046.85;1755650;80;21590;-67
2022/10/16 06:34:11;;;;;;;8.03;6.28;;;;;;;7.56;100.00;100987.72;1752420;80;21483;-67
2022/10/16 06:36:38;;;;;;;8.88;6.78;;;;;;;8.02;100.00;101040.53;1737221;80;21991;-67
2022/10/16 06:39:07;;;;;;;9.93;7.37;;;;;;;8.08;100.00;101043.09;1746218;80;21174;-66
2022/10/16 06:41:34;;;;;;;9.58;6.45;;;;;;;8.12;100.00;101047.44;1743347;80;20951;-67
2022/10/16 06:44:07;;;;;;;9.70;6.67;;;;;;;8.21;100.00;101054.31;1759401;80;21537;-67
2022/10/16 06:46:35;;;;;;;12.90;7.53;;;;;;;8.30;100.00;101056.84;1727281;80;21073;-66
2022/10/16 07:30:37;;;;;;;7.42;5.85;;;;;;;7.43;100.00;101077.69;1789314;78;26537;-65
2022/10/16 07:33:03;;;;;;;5.92;5.05;;;;;;;7.91;100.00;101076.88;1763034;80;21590;-64
2022/10/16 07:35:32;;;;;;;9.18;5.22;;;;;;;8.30;100.00;101079.11;1758176;80;21631;-65
2022/10/16 07:37:59;;;;;;;8.23;5.00;;;;;;;8.60;100.00;101076.63;1756016;80;21552;-66
2022/10/16 07:40:26;;;;;;;5.60;4.58;;;;;;;8.83;100.00;101074.16;1744375;80;20970;-65
2022/10/16 07:42:53;;;;;;;5.53;4.80;;;;;;;8.99;100.00;101072.22;1756151;80;21557;-66
2022/10/16 07:45:20;;;;;;;5.35;4.25;;;;;;;9.19;100.00;101071.92;1752545;80;21615;-64
2022/10/16 07:47:47;;;;;;;5.80;4.40;;;;;;;9.37;100.00;101076.91;1762150;80;21718;-64
2022/10/16 07:50:13;;;;;;;5.85;4.15;;;;;;;9.57;100.00;101075.73;1767351;80;21438;-66
2022/10/16 07:52:41;;;;;;;7.75;4.15;;;;;;;9.74;100.00;101075.03;1756451;80;21416;-67
2022/10/16 07:55:08;;;;;;;4.70;3.72;;;;;;;9.89;100.00;101066.88;1767685;80;21609;-66
2022/10/16 07:57:36;;;;;;;5.20;3.80;;;;;;;10.06;100.00;101068.36;1765847;80;21650;-67
2022/10/16 08:00:04;;;;;;;6.00;4.05;;;;;;;10.22;100.00;101062.36;1762149;80;21818;-66
2022/10/16 08:02:33;;;;;;;3.72;3.17;;;;;;;10.40;100.00;101049.36;1762696;80;21041;-67
2022/10/16 08:05:00;;;;;;;6.10;3.73;;;;;;;10.74;99.89;101052.16;1758577;80;21513;-68
2022/10/16 08:27:58;;;;;;;6.78;3.50;;;;;;;10.77;95.15;101044.19;1827184;75;26329;-68
2022/10/16 08:30:26;;;;;;;4.30;3.37;;;;;;;11.15;92.60;101051.71;1787488;78;21548;-70
2022/10/16 08:32:54;;;;;;;3.70;3.35;;;;;;;11.41;87.43;101052.39;1795526;77;21975;-68
2022/10/16 08:35:20;;;;;;;4.03;3.08;;;;;;;11.57;86.97;101055.54;1810345;77;21620;-66
2022/10/16 08:37:47;;;;;;;3.55;3.20;;;;;;;11.71;86.33;101054.33;1807756;77;21043;-66
2022/10/16 08:40:25;;;;;;;;;;;;;;;11.84;85.37;101049.16;1766220;80;21659;-66
2022/10/16 08:43:11;;;;;;;5.30;3.10;;;;;;;11.92;77.61;101047.21;1764203;80;20508;-65
2022/10/16 08:46:06;;;;;;;3.70;3.00;;;;;;;12.00;83.16;101045.27;1797893;78;21907;-63
2022/10/16 08:48:44;;;;;;;5.12;3.05;;;;;;;12.08;82.61;101041.95;1760429;79;21605;-65
2022/10/16 08:51:16;;;;;;;5.83;3.30;;;;;;;12.18;81.98;101050.48;1804554;78;21543;-63
2022/10/16 08:53:56;;;;;;;4.35;2.72;;;;;;;12.22;82.00;101057.42;1799166;77;21555;-61
2022/10/16 08:56:24;;;;;;;4.00;2.65;;;;;;;12.32;80.02;101061.09;1802135;77;21547;-66
2022/10/16 08:58:52;;;;;;;4.25;2.77;;;;;;;12.43;79.71;101058.60;1796547;77;21790;-64
2022/10/16 09:01:22;;;;;;;3.70;2.80;;;;;;;12.56;77.81;101055.14;1802043;77;21581;-67
2022/10/16 09:04:30;;;;;;;3.27;2.80;;;;;;;12.66;78.14;101051.81;1773960;80;21458;-66
2022/10/16 09:07:33;;;;;;;3.25;2.42;;;;;;;12.75;77.13;101050.65;1756646;80;21580;-67
2022/10/16 09:10:28;;;;;;;3.33;2.95;;;;;;;12.84;76.21;101049.06;1804226;78;21444;-66
2022/10/16 09:13:23;;;;;;;7.30;3.02;;;;;;;12.94;75.17;101053.17;1753886;80;21541;-69
2022/10/16 09:16:02;;;;;;;2.92;2.65;;;;;;;13.04;75.73;101049.33;1805331;77;21784;-67
2022/10/16 09:18:43;;;;;;;3.15;2.50;;;;;;;13.17;74.30;101046.33;1796136;77;21863;-69
2022/10/16 09:21:24;;;;;;;3.15;2.85;;;;;;;13.27;73.18;101044.25;1798539;78;21553;-68
2022/10/16 09:23:51;;;;;;;4.03;3.37;;;;;;;13.29;71.91;101043.74;1789528;78;21521;-69
2022/10/16 09:26:21;;;;;;;3.33;2.95;;;;;;;13.38;73.08;101031.59;1755458;80;21761;-65
2022/10/16 09:28:47;;;;;;;3.12;2.83;;;;;;;13.46;71.58;101040.59;1807189;77;21484;-68
2022/10/16 09:31:19;;;;;;;4.60;2.93;;;;;;;13.54;71.44;101040.77;1794662;77;21530;-68
2022/10/16 09:33:57;;;;;;;3.25;2.58;;;;;;;13.61;69.63;101042.72;1770087;79;21777;-67
2022/10/16 09:36:23;;;;;;;;;;;;;;;13.69;69.37;101045.97;1809911;78;21504;-70
2022/10/16 09:38:50;;;;;;;2.20;2.00;;;;;;;13.76;58.07;101037.39;1800506;78;20818;-61
2022/10/16 09:41:21;;;;;;;6.20;2.90;;;;;;;13.83;68.47;101041.55;1763242;80;21011;-60
2022/10/16 09:44:00;;;;;;;3.05;2.30;;;;;;;13.95;68.51;101044.23;1744518;79;21737;-61
2022/10/16 09:46:33;;;;;;;3.22;2.70;;;;;;;14.02;66.99;101044.43;1735861;81;21557;-67
2022/10/16 09:49:03;;;;;;;4.45;2.52;;;;;;;14.12;66.27;101031.73;1752807;79;21541;-62
2022/10/16 09:51:35;;;;;;;3.37;2.70;;;;;;;14.21;64.36;101037.56;1748256;79;21870;-61
2022/10/16 09:54:15;;;;;;;2.70;2.50;;;;;;;14.29;63.70;101036.42;1746918;79;21021;-66
2022/10/16 09:56:45;;;;;;;3.02;2.67;;;;;;;14.34;63.28;101019.47;1751963;79;20974;-59
2022/10/16 09:59:16;;;;;;;3.92;2.80;;;;;;;14.44;62.85;101019.98;1752346;79;21396;-60
2022/10/16 10:01:50;;;;;;;4.90;2.75;;;;;;;14.55;62.67;101011.66;1759108;80;21448;-62
2022/10/16 10:04:18;;;;;;;2.50;2.30;;;;;;;14.65;62.54;101005.11;1743791;80;22196;-65
2022/10/16 10:06:54;;;;;;;2.87;2.40;;;;;;;14.73;61.65;101007.47;1766851;80;21562;-64
2022/10/16 10:09:28;;;;;;;2.92;2.27;;;;;;;14.84;60.75;101003.94;1759219;80;21472;-63
2022/10/16 10:12:04;;;;;;;5.53;2.02;;;;;;;14.84;58.31;101000.44;1822054;77;20985;-62
2022/10/16 10:14:42;;;;;;;2.62;2.20;;;;;;;14.85;58.35;101004.83;1809479;78;21556;-60
2022/10/16 10:17:18;;;;;;;3.83;1.90;;;;;;;14.88;57.47;101016.60;1775044;77;21888;-62
2022/10/16 10:19:54;;;;;;;4.40;1.95;;;;;;;14.89;55.69;101003.31;1759162;80;21637;-61
2022/10/16 10:22:32;;;;;;;3.05;2.05;;;;;;;14.94;55.79;100993.88;1808022;77;21489;-59
2022/10/16 10:25:15;;;;;;;3.35;2.22;;;;;;;14.99;56.02;100990.13;1765935;80;22399;-59
2022/10/16 10:28:25;;;;;;;2.70;1.70;;;;;;;15.11;55.59;100984.78;1804616;78;21379;-62
2022/10/16 10:31:14;;;;;;;4.72;2.05;;;;;;;15.15;54.68;100977.11;1802214;78;21921;-62
2022/10/16 10:33:59;;;;;;;2.40;1.80;;;;;;;15.29;55.50;100968.59;1756519;79;21581;-61
2022/10/16 10:36:40;;;;;;;3.08;2.08;;;;;;;15.37;54.70;100960.34;1803499;78;21497;-60
2022/10/16 10:39:21;;;;;;;3.72;1.85;;;;;;;15.44;54.66;100956.48;1764847;79;21424;-62
2022/10/16 10:42:32;;;;;;;3.80;2.40;;;;;;;15.44;54.79;100955.16;1805637;78;21652;-64
2022/10/16 10:45:10;;;;;;;4.00;2.10;;;;;;;15.50;54.66;100960.23;1709256;82;21834;-64
2022/10/16 10:48:00;;;;;;;4.35;2.20;;;;;;;15.52;53.22;100963.67;1782567;77;21591;-61
2022/10/16 10:50:32;;;;;;;2.58;1.82;;;;;;;15.54;53.82;100960.48;1796307;78;21583;-62
2022/10/16 10:53:31;;;;;;;4.37;2.10;;;;;;;15.56;53.22;100961.28;1762032;80;21458;-62
2022/10/16 10:56:24;;;;;;;3.17;1.80;;;;;;;15.64;53.14;100962.28;1773327;80;21533;-62
2022/10/16 10:59:37;;;;;;;3.65;2.00;;;;;;;15.71;52.21;100962.89;1762302;80;21974;-64
2022/10/16 11:02:18;;;;;;;1.95;1.77;;;;;;;15.77;52.23;100962.65;1715037;79;21516;-64
2022/10/16 11:04:59;;;;;;;3.22;2.35;;;;;;;15.73;51.42;100968.55;1775205;79;21525;-63
2022/10/16 11:07:33;;;;;;;3.72;2.02;;;;;;;15.81;51.72;100960.73;1758502;79;21556;-64
2022/10/16 11:10:17;;;;;;;2.35;2.05;;;;;;;15.89;50.76;100957.27;1770892;80;21462;-65
2022/10/16 11:12:55;;;;;;;2.30;2.00;;;;;;;15.92;50.58;100954.48;1765352;80;21827;-65
2022/10/16 11:15:31;;;;;;;2.20;1.82;;;;;;;15.94;50.95;100959.26;1760891;80;21064;-64
2022/10/16 11:18:19;;;;;;;2.45;2.15;;;;;;;15.99;50.32;100967.84;1764120;80;21489;-65
2022/10/16 11:21:00;;;;;;;6.83;2.05;;;;;;;16.00;49.68;100970.91;1768101;79;20989;-62
2022/10/16 11:23:44;;;;;;;2.45;2.12;;;;;;;16.05;49.99;100966.27;1774180;80;21474;-65
2022/10/16 11:26:16;;;;;;;2.30;1.62;;;;;;;16.11;50.21;100967.79;1782882;78;21889;-64
2022/10/16 11:28:49;;;;;;;3.83;2.30;;;;;;;16.24;49.83;100975.59;1802147;78;21419;-64
2022/10/16 11:31:31;;;;;;;2.40;2.17;;;;;;;16.35;48.75;100980.42;1763804;80;21054;-67
2022/10/16 11:34:06;;;;;;;5.17;2.40;;;;;;;16.40;47.62;100978.87;1798720;78;21600;-66
2022/10/16 11:37:00;;;;;;;3.42;2.20;;;;;;;16.41;47.99;100977.95;1791297;78;21404;-65
2022/10/16 11:39:31;;;;;;;5.10;2.10;;;;;;;16.46;47.75;100977.25;1802281;78;21750;-66
2022/10/16 11:42:12;;;;;;;4.28;2.50;;;;;;;16.52;48.03;100973.02;1773241;80;21510;-66
2022/10/16 11:45:09;;;;;;;2.37;2.02;;;;;;;16.62;47.31;100974.77;1796262;78;21536;-66
2022/10/16 11:47:52;;;;;;;2.45;1.95;;;;;;;16.67;47.49;100972.28;1800771;78;21559;-63
2022/10/16 11:50:38;;;;;;;2.75;2.00;;;;;;;16.80;47.03;100973.02;1759468;80;21493;-63
2022/10/16 11:53:32;;;;;;;3.62;2.40;;;;;;;17.98;44.71;100972.95;1797153;77;21810;-65
2022/10/16 11:55:59;;;;;;;2.52;2.33;;;;;;;20.19;39.38;100961.69;1790228;78;21083;-64
2022/10/16 11:58:40;;;;;;;2.00;1.80;;;;;;;22.10;35.64;100954.48;1801350;77;21583;-63
2022/10/16 12:01:24;;;;;;;1.62;1.52;;;;;;;23.21;33.32;100951.86;1749837;80;21567;-65
2022/10/16 12:04:16;;;;;;;2.33;2.12;;;;;;;23.63;32.14;100944.67;1750371;79;21471;-66
2022/10/16 12:07:13;;;;;;;3.62;2.67;;;;;;;22.08;33.85;100956.91;1796871;78;21564;-66
2022/10/16 12:09:41;;;;;;;2.08;1.65;;;;;;;22.08;33.85;100956.91;1797908;77;21611;-65
2022/10/16 12:12:29;;;;;;;;;;;;;;;21.14;35.18;100959.23;1798799;78;21517;-66
2022/10/16 12:15:00;;;;;;;;;;;;;;;20.57;31.79;100965.09;1731358;80;20404;-65
2022/10/16 12:17:37;;;;;;;4.03;1.67;;;;;;;19.82;31.42;100964.42;1764495;80;20440;-66
2022/10/16 12:20:36;;;;;;;2.60;1.52;;;;;;;19.47;37.17;100977.16;1757057;80;21063;-65
2022/10/16 12:23:05;;;;;;;1.77;1.67;;;;;;;19.26;36.92;100972.13;1765199;80;21438;-66
2022/10/16 12:25:45;;;;;;;3.02;1.77;;;;;;;19.13;36.83;100970.64;1804677;78;21497;-65
2022/10/16 12:28:19;;;;;;;3.20;2.25;;;;;;;19.08;37.17;100969.19;1761665;80;21514;-66
2022/10/16 12:30:58;;;;;;;2.25;2.05;;;;;;;18.97;37.10;100971.16;1788098;78;21536;-65
2022/10/16 12:33:29;;;;;;;4.80;2.58;;;;;;;18.97;36.76;100962.69;1794126;78;21794;-65
2022/10/16 12:35:59;;;;;;;2.83;2.35;;;;;;;18.88;36.57;100970.34;1788796;78;21587;-66
2022/10/16 12:38:40;;;;;;;2.30;2.10;;;;;;;18.86;36.64;100960.62;1796495;77;21507;-66
2022/10/16 12:41:08;;;;;;;4.80;1.95;;;;;;;19.02;36.58;100969.95;1775883;78;21556;-65
2022/10/16 12:43:39;;;;;;;2.12;1.95;;;;;;;19.11;36.32;100963.21;1807566;78;21540;-65
2022/10/16 12:46:15;;;;;;;3.52;1.70;;;;;;;19.30;36.18;100966.15;1789975;78;21855;-65
2022/10/16 12:48:44;;;;;;;2.40;2.00;;;;;;;19.39;36.17;100961.12;1804055;78;21497;-66
2022/10/16 12:51:33;;;;;;;3.95;2.22;;;;;;;19.65;35.49;100962.25;1765370;80;21627;-66
2022/10/16 12:54:14;;;;;;;4.35;2.60;;;;;;;19.93;35.45;100955.73;1801221;77;20965;-65
2022/10/16 12:57:01;;;;;;;3.40;1.82;;;;;;;21.65;33.54;100957.20;1800014;78;21363;-64
2022/10/16 13:00:15;;;;;;;2.27;2.00;;;;;;;23.84;31.74;100952.92;1807658;78;21811;-64